Time;durP1;ratioP1;P1;durP2;ratioP2;P2;SDS_P1;SDS_P2;PMS_P1;PMS_P2;Temp;Humidity;BMP_temperature;BMP_pressure;BME280_temperature;BME280_humidity;BME280_pressure;Samples;Min_cycle;Max_cycle;Signal;HPM_P1;HPM_P2
2021/07/28 00:01:41;;;;;;;12.83;9.17;;;;;;;19.56;100.00;156390.00;5071483;28;20442;-75
2021/07/28 00:04:17;;;;;;;9.87;8.93;;;;;;;19.56;100.00;156391.31;5070534;28;20437;-74
2021/07/28 00:06:53;;;;;;;9.23;8.30;;;;;;;19.60;100.00;156401.72;5072130;28;20465;-74
2021/07/28 00:09:29;;;;;;;9.87;8.87;;;;;;;19.51;100.00;156376.97;5105410;28;20446;-75
2021/07/28 00:12:06;;;;;;;10.27;7.67;;;;;;;19.49;100.00;156371.72;5071232;28;20481;-74
2021/07/28 00:14:41;;;;;;;8.63;7.80;;;;;;;19.41;100.00;156353.47;5116047;28;20837;-74
2021/07/28 00:17:17;;;;;;;8.90;8.00;;;;;;;19.38;100.00;156345.66;5105044;28;20442;-74
2021/07/28 00:19:56;;;;;;;8.93;8.03;;;;;;;19.37;100.00;156341.72;5071424;28;20438;-74
2021/07/28 00:25:30;;;;;;;11.40;8.63;;;;;;;19.35;100.00;156337.78;5060594;28;20934;-74
2021/07/28 00:28:06;;;;;;;9.80;8.20;;;;;;;19.39;100.00;156348.28;5076387;28;20464;-74
2021/07/28 00:30:42;;;;;;;12.97;8.60;;;;;;;19.34;100.00;156335.19;5072186;28;20505;-74
2021/07/28 00:33:17;;;;;;;10.20;8.70;;;;;;;19.27;100.00;156316.91;5071994;28;20458;-74
2021/07/28 00:35:54;;;;;;;10.40;8.70;;;;;;;19.24;100.00;156309.13;5104466;28;20434;-74
2021/07/28 00:38:30;;;;;;;8.60;7.70;;;;;;;19.21;100.00;156300.00;5087027;28;20920;-74
2021/07/28 00:41:07;;;;;;;10.80;9.53;;;;;;;19.18;100.00;156293.50;5077997;28;20480;-75
2021/07/28 00:43:42;;;;;;;9.10;8.03;;;;;;;19.21;100.00;156301.31;5070220;28;20796;-74
2021/07/28 00:46:18;;;;;;;8.57;7.77;;;;;;;19.22;100.00;156302.63;5077984;28;20449;-74
2021/07/28 00:48:53;;;;;;;9.37;8.40;;;;;;;19.20;100.00;156298.69;5087906;28;20823;-74
2021/07/28 00:51:29;;;;;;;9.20;8.27;;;;;;;19.22;100.00;156303.88;5071761;28;20964;-74
2021/07/28 00:54:04;;;;;;;10.20;8.43;;;;;;;19.24;100.00;156309.13;5070964;28;20438;-74
2021/07/28 00:56:43;;;;;;;9.90;8.07;;;;;;;19.24;100.00;156307.84;5077943;28;20495;-75
2021/07/28 00:59:18;;;;;;;10.87;9.07;;;;;;;19.15;100.00;156285.66;5097011;28;20440;-75
2021/07/28 01:01:54;;;;;;;10.07;8.30;;;;;;;19.17;100.00;156289.53;5055700;28;20457;-74
2021/07/28 01:04:29;;;;;;;10.17;9.17;;;;;;;19.12;100.00;156276.53;5074684;28;20924;-74
2021/07/28 01:07:05;;;;;;;8.20;7.40;;;;;;;19.23;100.00;156305.19;5093394;28;20563;-74
2021/07/28 01:09:41;;;;;;;7.63;6.90;;;;;;;19.12;100.00;156277.84;5096019;28;20440;-74
2021/07/28 01:12:17;;;;;;;7.67;6.97;;;;;;;19.05;100.00;156259.59;5078645;28;20523;-74
2021/07/28 01:14:53;;;;;;;7.70;7.00;;;;;;;19.08;100.00;156267.44;5082700;28;21106;-74
2021/07/28 01:17:28;;;;;;;7.87;6.83;;;;;;;19.08;100.00;156266.13;5077523;28;20852;-74
2021/07/28 01:20:07;;;;;;;7.70;6.90;;;;;;;19.08;100.00;156267.44;5075904;28;20509;-74
2021/07/28 01:22:42;;;;;;;7.57;6.77;;;;;;;19.03;100.00;156254.41;5073553;28;20457;-74
2021/07/28 01:25:19;;;;;;;8.43;7.00;;;;;;;19.10;100.00;156272.63;5074355;28;20449;-74
2021/07/28 01:27:55;;;;;;;7.47;6.77;;;;;;;18.98;100.00;156241.38;5088432;28;20466;-74
2021/07/28 01:30:31;;;;;;;7.40;6.67;;;;;;;19.05;100.00;156259.59;5075507;28;20477;-74
2021/07/28 01:33:07;;;;;;;7.33;6.60;;;;;;;18.94;100.00;156230.94;5073456;28;20458;-74
2021/07/28 01:35:43;;;;;;;7.57;6.80;;;;;;;18.99;100.00;156243.97;5094222;28;20472;-74
2021/07/28 01:38:25;;;;;;;7.40;6.43;;;;;;;18.97;100.00;156238.75;5094124;28;20437;-74
2021/07/28 01:41:03;;;;;;;7.50;6.80;;;;;;;18.88;100.00;156215.28;5078873;28;20704;-74
2021/07/28 01:43:39;;;;;;;7.80;7.10;;;;;;;18.93;100.00;156228.31;5059851;28;20464;-74
2021/07/28 01:46:15;;;;;;;7.67;6.97;;;;;;;18.94;100.00;156229.63;5087576;28;20442;-73
2021/07/28 01:48:50;;;;;;;8.47;7.63;;;;;;;18.92;100.00;156224.41;5064539;28;20462;-74
2021/07/28 01:51:25;;;;;;;7.90;7.10;;;;;;;18.83;100.00;156202.25;5107554;28;20458;-73
2021/07/28 01:54:01;;;;;;;8.80;7.17;;;;;;;18.77;100.00;156186.66;5083656;28;20528;-74
2021/07/28 01:56:42;;;;;;;9.70;8.70;;;;;;;18.76;100.00;156185.34;5075127;28;20913;-74
2021/07/28 01:59:18;;;;;;;8.30;7.50;;;;;;;18.74;100.00;156178.84;5074684;28;20430;-74
2021/07/28 02:01:53;;;;;;;8.60;7.70;;;;;;;18.71;100.00;156171.00;5106965;28;20476;-74
2021/07/28 02:04:29;;;;;;;9.57;8.57;;;;;;;18.64;100.00;156152.75;5071041;28;20441;-74
2021/07/28 02:07:05;;;;;;;9.20;8.30;;;;;;;18.68;100.00;156163.19;5057622;28;20852;-74
2021/07/28 02:09:40;;;;;;;8.87;8.03;;;;;;;18.61;100.00;156144.97;5073421;28;20446;-73
2021/07/28 02:12:17;;;;;;;9.60;8.60;;;;;;;18.56;100.00;156131.94;5082110;28;20504;-73
2021/07/28 02:14:52;;;;;;;12.67;8.70;;;;;;;18.51;100.00;156120.19;5073356;28;20441;-74
2021/07/28 02:17:28;;;;;;;8.40;7.60;;;;;;;18.58;100.00;156137.13;5073290;28;20536;-74
2021/07/28 02:20:05;;;;;;;9.67;8.63;;;;;;;18.61;100.00;156146.22;5073521;28;20442;-74
2021/07/28 02:22:42;;;;;;;8.67;7.87;;;;;;;18.55;100.00;156129.31;5074799;28;20808;-74
2021/07/28 02:25:18;;;;;;;7.20;6.50;;;;;;;18.61;100.00;156146.22;5072812;28;20434;-74
2021/07/28 02:27:55;;;;;;;6.90;6.30;;;;;;;18.59;100.00;156139.72;5037660;28;20467;-73
2021/07/28 02:30:30;;;;;;;7.03;6.33;;;;;;;18.61;100.00;156144.97;5088787;28;20438;-73
2021/07/28 02:33:06;;;;;;;6.70;6.00;;;;;;;18.66;100.00;156159.31;5085594;28;20450;-73
2021/07/28 02:35:41;;;;;;;6.47;5.77;;;;;;;18.61;100.00;156144.97;5077800;28;20481;-75
2021/07/28 02:38:17;;;;;;;7.60;6.87;;;;;;;18.64;100.00;156152.75;5074235;28;20484;-76
2021/07/28 02:40:52;;;;;;;7.00;6.30;;;;;;;18.66;100.00;156158.00;5083876;28;20536;-75
2021/07/28 02:43:29;;;;;;;7.90;5.73;;;;;;;18.61;100.00;156144.97;5073519;28;20947;-76
2021/07/28 02:46:05;;;;;;;7.30;6.20;;;;;;;18.58;100.00;156138.44;5074281;28;20815;-73
2021/07/28 02:48:40;;;;;;;14.53;6.93;;;;;;;18.61;100.00;156146.22;5073584;28;20959;-76
2021/07/28 02:51:16;;;;;;;7.27;6.30;;;;;;;18.58;100.00;156137.13;5089812;28;20438;-76
2021/07/28 02:53:52;;;;;;;6.20;5.60;;;;;;;18.54;100.00;156126.69;5074136;28;20434;-75
2021/07/28 02:56:27;;;;;;;5.93;5.40;;;;;;;18.57;100.00;156135.84;5087773;28;20793;-76
2021/07/28 02:59:04;;;;;;;6.57;5.97;;;;;;;18.48;100.00;156111.09;5073034;28;20472;-76
2021/07/28 03:01:40;;;;;;;6.60;5.80;;;;;;;18.45;100.00;156104.53;5073563;28;20437;-76
2021/07/28 03:04:15;;;;;;;6.30;5.70;;;;;;;18.44;100.00;156101.91;5073350;28;20446;-76
2021/07/28 03:06:50;;;;;;;7.17;6.40;;;;;;;18.47;100.00;156108.44;5071731;28;20465;-75
2021/07/28 03:09:26;;;;;;;7.20;5.70;;;;;;;18.43;100.00;156099.28;5062860;28;20786;-76
2021/07/28 03:12:01;;;;;;;6.60;5.83;;;;;;;18.43;100.00;156097.97;5073704;28;20527;-75
2021/07/28 03:14:38;;;;;;;7.33;6.63;;;;;;;18.38;100.00;156084.97;5073276;28;20438;-76
2021/07/28 03:17:14;;;;;;;7.40;6.57;;;;;;;18.35;100.00;156077.19;5068506;28;20446;-76
2021/07/28 03:19:49;;;;;;;6.80;6.00;;;;;;;18.29;100.00;156061.53;5069854;28;20434;-76
2021/07/28 03:22:25;;;;;;;6.33;5.73;;;;;;;18.26;100.00;156055.03;5056234;28;20449;-76
2021/07/28 03:25:00;;;;;;;7.87;6.90;;;;;;;18.25;100.00;156053.72;5072184;28;20422;-75
2021/07/28 03:27:36;;;;;;;7.30;6.60;;;;;;;18.27;100.00;156056.34;5084797;28;20951;-76
2021/07/28 03:30:14;;;;;;;7.63;6.00;;;;;;;18.22;100.00;156044.59;5081600;28;20851;-76
2021/07/28 03:32:49;;;;;;;8.47;6.80;;;;;;;18.20;100.00;156040.69;5105533;28;20473;-75
2021/07/28 03:35:25;;;;;;;6.60;6.00;;;;;;;18.12;100.00;156018.56;5073176;28;20893;-76
2021/07/28 03:38:00;;;;;;;7.73;6.40;;;;;;;18.10;100.00;156014.66;5067824;28;20449;-76
2021/07/28 03:40:36;;;;;;;7.37;6.37;;;;;;;18.09;100.00;156012.03;5071568;28;20445;-76
2021/07/28 03:43:13;;;;;;;7.23;6.50;;;;;;;18.09;100.00;156010.72;5072034;28;20453;-76
2021/07/28 03:45:50;;;;;;;8.40;7.53;;;;;;;18.11;100.00;156015.94;5077135;28;20824;-75
2021/07/28 03:48:29;;;;;;;6.93;6.23;;;;;;;18.14;100.00;156025.06;5074271;28;20455;-76
2021/07/28 03:51:05;;;;;;;6.67;6.07;;;;;;;18.09;100.00;156010.72;5051744;28;20489;-76
2021/07/28 03:53:40;;;;;;;6.90;6.20;;;;;;;17.97;100.00;155980.81;5068910;28;20438;-75
2021/07/28 03:56:17;;;;;;;7.80;6.53;;;;;;;18.03;100.00;155995.16;5071169;28;21013;-76
2021/07/28 03:58:54;;;;;;;7.10;6.40;;;;;;;18.02;100.00;155993.81;5104949;28;20446;-76
2021/07/28 04:01:30;;;;;;;7.00;6.30;;;;;;;18.08;100.00;156009.41;5071636;28;20442;-76
2021/07/28 04:04:06;;;;;;;7.40;6.43;;;;;;;18.11;100.00;156015.94;5071234;28;20856;-75
2021/07/28 04:06:42;;;;;;;7.37;6.50;;;;;;;18.13;100.00;156021.19;5071266;28;20454;-76
2021/07/28 04:09:17;;;;;;;8.07;7.27;;;;;;;18.18;100.00;156035.50;5077949;28;20464;-75
2021/07/28 04:11:53;;;;;;;7.93;6.30;;;;;;;18.12;100.00;156019.88;5125579;27;20480;-75
2021/07/28 04:14:28;;;;;;;7.90;6.43;;;;;;;18.15;100.00;156026.38;5076155;28;20434;-76
2021/07/28 04:17:06;;;;;;;9.20;6.87;;;;;;;18.13;100.00;156021.19;5072404;28;20484;-75
2021/07/28 04:19:43;;;;;;;7.33;6.60;;;;;;;18.14;100.00;156023.75;5055890;28;20909;-76
2021/07/28 04:22:20;;;;;;;8.90;7.30;;;;;;;18.14;100.00;156025.06;5071139;28;20528;-76
2021/07/28 04:24:55;;;;;;;9.13;7.03;;;;;;;18.11;100.00;156017.25;5079916;28;20439;-76
2021/07/28 04:27:31;;;;;;;9.63;6.60;;;;;;;18.14;100.00;156025.06;5059927;28;20450;-76
2021/07/28 04:30:07;;;;;;;7.83;7.03;;;;;;;18.17;100.00;156032.88;5101911;28;20948;-75
2021/07/28 04:32:44;;;;;;;7.47;6.47;;;;;;;18.22;100.00;156045.91;5075456;28;20441;-75
2021/07/28 04:35:19;;;;;;;6.83;6.23;;;;;;;18.21;100.00;156043.28;5084088;28;20468;-75
2021/07/28 04:37:55;;;;;;;7.83;6.97;;;;;;;18.23;100.00;156048.53;5082635;28;20445;-76
2021/07/28 04:40:31;;;;;;;7.23;6.40;;;;;;;18.27;100.00;156058.91;5076056;28;20456;-76
2021/07/28 04:43:06;;;;;;;7.10;6.13;;;;;;;18.29;100.00;156061.53;5089761;28;20536;-76
2021/07/28 04:45:41;;;;;;;8.20;7.40;;;;;;;18.26;100.00;156055.03;5056279;28;20411;-76
2021/07/28 04:48:18;;;;;;;8.10;6.77;;;;;;;18.24;100.00;156051.09;5095121;28;20457;-75
2021/07/28 04:50:54;;;;;;;7.03;6.20;;;;;;;18.27;100.00;156057.59;5096700;28;20418;-76
2021/07/28 04:53:29;;;;;;;7.13;6.43;;;;;;;18.35;100.00;156078.44;5075389;28;20449;-76
2021/07/28 04:56:05;;;;;;;7.33;6.63;;;;;;;18.37;100.00;156082.38;5067881;28;20524;-75
2021/07/28 04:58:40;;;;;;;7.33;6.63;;;;;;;18.47;100.00;156108.44;5088257;28;20500;-76
2021/07/28 05:01:16;;;;;;;7.57;6.33;;;;;;;18.57;100.00;156135.84;5088455;28;20431;-76
2021/07/28 05:03:53;;;;;;;7.53;6.33;;;;;;;18.65;100.00;156155.38;5088979;28;20442;-76
2021/07/28 05:06:40;;;;;;;8.03;7.23;;;;;;;18.85;100.00;156207.47;5054778;28;20444;-76
2021/07/28 05:09:16;;;;;;;7.07;6.03;;;;;;;18.93;100.00;156228.31;5055853;28;20462;-76
2021/07/28 05:11:51;;;;;;;7.13;6.43;;;;;;;18.74;100.00;156178.84;5101116;28;20970;-76
2021/07/28 05:14:27;;;;;;;7.13;6.43;;;;;;;18.68;100.00;156164.50;5078531;28;20434;-76
2021/07/28 05:17:03;;;;;;;9.17;6.70;;;;;;;18.61;100.00;156146.22;5072575;28;20445;-76
2021/07/28 05:19:39;;;;;;;7.83;6.63;;;;;;;18.58;100.00;156138.44;5070003;28;20900;-76
2021/07/28 05:22:15;;;;;;;6.80;6.20;;;;;;;18.54;100.00;156128.00;5086303;28;20924;-76
2021/07/28 05:24:52;;;;;;;7.57;6.30;;;;;;;18.57;100.00;156134.53;5078904;28;20852;-75
2021/07/28 05:27:28;;;;;;;6.60;6.00;;;;;;;18.57;100.00;156134.53;5076472;28;21055;-76
2021/07/28 05:30:03;;;;;;;7.63;6.40;;;;;;;18.51;100.00;156120.19;5071924;28;20461;-76
2021/07/28 05:32:39;;;;;;;8.00;5.63;;;;;;;18.46;100.00;156107.09;5074625;28;20543;-76
2021/07/28 05:35:16;;;;;;;7.33;6.30;;;;;;;18.56;100.00;156133.19;5073979;28;20469;-76
2021/07/28 05:37:57;;;;;;;6.30;5.70;;;;;;;18.60;100.00;156143.66;5085181;28;20801;-76
2021/07/28 05:40:33;;;;;;;6.00;5.40;;;;;;;18.67;100.00;156160.56;5069901;28;20446;-76
2021/07/28 05:43:08;;;;;;;6.43;5.70;;;;;;;18.66;100.00;156158.00;5058754;28;20953;-76
2021/07/28 05:45:44;;;;;;;8.03;5.90;;;;;;;18.65;100.00;156156.66;5073726;28;20996;-76
2021/07/28 05:48:19;;;;;;;8.40;6.63;;;;;;;18.68;100.00;156164.50;5072547;28;20466;-76
2021/07/28 05:50:56;;;;;;;6.53;5.53;;;;;;;18.75;100.00;156182.72;5070221;28;20481;-76
2021/07/28 05:53:34;;;;;;;6.43;5.73;;;;;;;18.74;100.00;156178.84;5073899;28;20458;-76
2021/07/28 05:56:10;;;;;;;6.37;5.67;;;;;;;18.69;100.00;156165.81;5083689;28;20503;-76
2021/07/28 05:58:45;;;;;;;6.57;5.87;;;;;;;18.72;100.00;156173.59;5083237;28;20533;-76
2021/07/28 06:01:21;;;;;;;7.30;6.50;;;;;;;18.70;100.00;156168.38;5089421;28;20466;-76
2021/07/28 06:03:56;;;;;;;6.60;6.00;;;;;;;18.71;100.00;156171.00;5074534;28;20925;-73
2021/07/28 06:06:33;;;;;;;6.00;5.40;;;;;;;18.70;100.00;156169.69;5075364;28;20450;-75
2021/07/28 06:09:08;;;;;;;7.57;5.43;;;;;;;18.72;100.00;156174.91;5074757;28;20450;-76
2021/07/28 06:11:44;;;;;;;5.90;5.30;;;;;;;18.73;100.00;156176.22;5106979;28;20434;-73
2021/07/28 06:14:19;;;;;;;6.57;5.40;;;;;;;18.81;100.00;156197.06;5094977;27;20445;-73
2021/07/28 06:16:55;;;;;;;7.33;6.63;;;;;;;18.84;100.00;156204.88;5093511;28;20453;-75
2021/07/28 06:19:30;;;;;;;6.93;6.30;;;;;;;18.93;100.00;156227.03;5093592;28;20855;-75
2021/07/28 06:22:07;;;;;;;8.33;5.43;;;;;;;19.01;100.00;156249.16;5069006;28;20455;-75
2021/07/28 06:24:43;;;;;;;6.30;5.70;;;;;;;19.05;100.00;156259.59;5074929;28;20540;-75
2021/07/28 06:27:18;;;;;;;6.37;5.73;;;;;;;19.01;99.56;156249.16;5064923;28;20458;-74
2021/07/28 06:29:54;;;;;;;6.63;5.70;;;;;;;18.98;99.73;156241.38;5104017;28;20462;-75
2021/07/28 06:32:29;;;;;;;5.97;5.40;;;;;;;19.03;100.00;156254.41;5092912;28;20449;-75
2021/07/28 06:35:06;;;;;;;6.93;6.23;;;;;;;18.97;100.00;156238.75;5094458;28;20449;-75
2021/07/28 06:37:43;;;;;;;6.40;5.80;;;;;;;18.96;100.00;156236.13;5083884;28;20453;-75
2021/07/28 06:40:18;;;;;;;6.43;5.77;;;;;;;18.93;100.00;156228.31;5071181;28;20572;-73
2021/07/28 06:42:54;;;;;;;6.37;5.70;;;;;;;18.95;100.00;156233.56;5074912;28;20448;-73
2021/07/28 06:45:29;;;;;;;7.30;6.17;;;;;;;18.88;100.00;156215.28;5073581;28;20446;-74
2021/07/28 06:48:05;;;;;;;6.87;5.77;;;;;;;18.81;100.00;156197.06;5071746;28;20441;-73
2021/07/28 06:50:41;;;;;;;6.70;5.40;;;;;;;18.78;100.00;156190.53;5070987;28;20797;-74
2021/07/28 06:53:17;;;;;;;7.30;6.60;;;;;;;18.74;100.00;156178.84;5098918;28;20446;-75
2021/07/28 06:55:53;;;;;;;8.17;6.10;;;;;;;18.65;100.00;156155.38;5071288;28;20431;-73
2021/07/28 06:58:29;;;;;;;7.33;6.17;;;;;;;18.61;100.00;156146.22;5095009;28;20454;-73
2021/07/28 07:01:06;;;;;;;7.97;6.90;;;;;;;18.46;100.00;156107.09;5071329;28;20430;-74
2021/07/28 07:03:41;;;;;;;8.00;6.80;;;;;;;18.56;100.00;156131.94;5075061;28;20438;-74
2021/07/28 07:06:17;;;;;;;7.23;5.77;;;;;;;18.45;100.00;156103.22;5070061;28;20450;-74
2021/07/28 07:08:54;;;;;;;6.90;6.07;;;;;;;18.48;100.00;156111.09;5068969;28;20462;-73
2021/07/28 07:11:30;;;;;;;6.60;5.90;;;;;;;18.50;100.00;156117.59;5072282;28;20762;-73
2021/07/28 07:14:05;;;;;;;6.90;5.70;;;;;;;18.53;100.00;156125.38;5070081;28;20984;-76
2021/07/28 07:16:40;;;;;;;7.30;6.60;;;;;;;18.42;100.00;156096.72;5077791;28;20437;-76
2021/07/28 07:19:16;;;;;;;7.00;6.30;;;;;;;18.55;100.00;156129.31;5076932;28;20442;-75
2021/07/28 07:21:52;;;;;;;10.20;7.00;;;;;;;18.52;100.00;156121.50;5117216;27;20790;-76
2021/07/28 07:24:28;;;;;;;6.23;5.60;;;;;;;18.53;100.00;156125.38;5078324;28;20971;-76
2021/07/28 07:27:04;;;;;;;7.33;6.60;;;;;;;18.58;100.00;156137.13;5081451;28;20938;-75
2021/07/28 07:29:40;;;;;;;7.70;6.63;;;;;;;18.56;100.00;156131.94;5073559;28;20861;-76
2021/07/28 07:32:21;;;;;;;7.00;6.00;;;;;;;18.64;100.00;156152.75;5071263;28;20441;-75
2021/07/28 07:34:57;;;;;;;6.50;5.90;;;;;;;18.65;100.00;156155.38;5098041;28;20533;-76
2021/07/28 07:37:33;;;;;;;8.10;6.60;;;;;;;18.67;100.00;156160.56;5058065;28;20813;-75
2021/07/28 07:40:12;;;;;;;7.43;6.63;;;;;;;18.71;100.00;156172.31;5074544;28;20434;-76
2021/07/28 07:42:47;;;;;;;8.47;6.80;;;;;;;18.78;100.00;156189.22;5091076;28;20928;-75
2021/07/28 07:45:23;;;;;;;7.03;6.30;;;;;;;18.65;100.00;156156.66;5087889;28;20441;-76
2021/07/28 07:47:58;;;;;;;7.07;5.97;;;;;;;18.76;100.00;156184.03;5078450;28;20485;-76
2021/07/28 07:50:36;;;;;;;11.80;6.30;;;;;;;18.70;99.61;156169.69;5071399;28;20482;-76
2021/07/28 07:53:12;;;;;;;6.90;6.20;;;;;;;18.81;100.00;156197.06;5070514;28;20453;-77
2021/07/28 07:55:49;;;;;;;6.27;5.67;;;;;;;18.77;100.00;156187.91;5072340;28;20456;-75
2021/07/28 07:58:24;;;;;;;7.30;5.57;;;;;;;18.72;100.00;156173.59;5066209;28;20808;-76
2021/07/28 08:01:06;;;;;;;8.40;6.17;;;;;;;18.66;100.00;156158.00;5071907;28;20433;-76
2021/07/28 08:03:42;;;;;;;6.97;6.37;;;;;;;18.58;99.85;156137.13;5073059;28;20462;-76
2021/07/28 08:06:18;;;;;;;6.67;6.00;;;;;;;18.63;100.00;156151.47;5088062;28;20437;-76
2021/07/28 08:08:54;;;;;;;10.37;6.47;;;;;;;18.52;100.00;156121.50;5091563;28;20547;-75
2021/07/28 08:11:31;;;;;;;6.93;6.23;;;;;;;18.50;100.00;156116.31;5083815;28;20488;-76
2021/07/28 08:14:08;;;;;;;6.90;6.20;;;;;;;18.54;100.00;156126.69;5084450;28;20473;-76
2021/07/28 08:16:43;;;;;;;6.83;5.90;;;;;;;18.47;100.00;156109.78;5079878;28;20481;-76
2021/07/28 08:19:19;;;;;;;7.30;5.83;;;;;;;18.40;100.00;156091.47;5070587;28;20445;-76
2021/07/28 08:21:54;;;;;;;8.43;6.27;;;;;;;18.44;100.00;156101.91;5077603;28;20445;-75
2021/07/28 08:24:30;;;;;;;6.50;5.73;;;;;;;18.41;99.60;156094.09;5084203;28;20466;-76
2021/07/28 08:27:07;;;;;;;7.07;6.23;;;;;;;18.41;100.00;156092.78;5055555;28;20462;-76
2021/07/28 08:29:42;;;;;;;6.60;5.60;;;;;;;18.33;99.23;156071.94;5085603;28;20460;-75
2021/07/28 08:32:17;;;;;;;5.70;5.10;;;;;;;18.36;99.32;156079.75;5085500;28;20797;-76
2021/07/28 08:34:53;;;;;;;7.03;5.73;;;;;;;18.38;100.00;156086.28;5060776;28;20450;-76
2021/07/28 08:37:28;;;;;;;6.30;5.00;;;;;;;18.38;100.00;156086.28;5076817;28;20541;-76
2021/07/28 08:40:09;;;;;;;6.67;6.07;;;;;;;18.40;100.00;156090.22;5067145;28;20486;-75
2021/07/28 08:42:50;;;;;;;5.17;4.60;;;;;;;18.37;100.00;156082.38;5082454;28;20445;-76
2021/07/28 08:45:25;;;;;;;6.30;5.70;;;;;;;18.34;100.00;156075.88;5086496;28;20988;-75
2021/07/28 08:48:02;;;;;;;6.40;5.80;;;;;;;18.32;100.00;156070.63;5076172;28;20940;-76
2021/07/28 08:50:37;;;;;;;7.50;6.27;;;;;;;18.48;100.00;156111.09;5072357;28;20859;-76
2021/07/28 08:53:13;;;;;;;6.30;5.70;;;;;;;18.57;100.00;156134.53;5084596;28;20536;-76
2021/07/28 08:55:48;;;;;;;7.20;5.70;;;;;;;18.66;98.67;156158.00;5073520;28;20426;-76
2021/07/28 08:58:27;;;;;;;5.80;5.10;;;;;;;18.81;98.99;156197.06;5076104;28;20477;-89
2021/07/28 09:01:03;;;;;;;6.80;6.13;;;;;;;18.96;99.27;156236.13;5066504;28;20446;-89
2021/07/28 09:03:39;;;;;;;6.37;5.60;;;;;;;18.98;95.14;156241.38;5071305;28;20459;-88
2021/07/28 09:06:27;;;;;;;7.90;6.10;;;;;;;18.99;93.26;156243.97;5072320;28;20450;-88
2021/07/28 09:09:03;;;;;;;6.33;5.70;;;;;;;19.08;93.15;156267.44;5074688;28;20450;-89
2021/07/28 09:11:52;;;;;;;5.33;4.70;;;;;;;19.24;95.07;156309.13;5090626;28;20449;-88
2021/07/28 09:14:32;;;;;;;6.20;5.60;;;;;;;19.40;95.21;156350.91;5095806;28;20949;-89
2021/07/28 09:17:19;;;;;;;7.57;5.87;;;;;;;19.46;91.71;156363.94;5060565;28;20521;-76
2021/07/28 09:19:55;;;;;;;7.17;5.10;;;;;;;19.52;89.51;156379.53;5066358;28;20468;-76
2021/07/28 09:22:33;;;;;;;5.87;5.27;;;;;;;19.61;88.81;156404.34;5086355;28;20445;-76
2021/07/28 09:25:18;;;;;;;6.97;4.80;;;;;;;19.80;90.07;156453.84;5058460;28;20430;-76
2021/07/28 09:27:55;;;;;;;4.87;4.40;;;;;;;19.83;90.26;156460.41;5068245;28;20444;-76
2021/07/28 09:30:34;;;;;;;6.30;5.70;;;;;;;20.01;91.07;156507.34;5076501;28;20960;-76
2021/07/28 09:33:11;;;;;;;6.20;5.60;;;;;;;20.08;90.46;156524.25;5105005;28;20442;-76
2021/07/28 09:36:16;;;;;;;6.77;5.87;;;;;;;20.08;88.29;156525.59;5105399;27;20533;-75
2021/07/28 09:38:54;;;;;;;5.40;4.90;;;;;;;20.16;89.61;156546.44;5067161;28;20449;-76
2021/07/28 09:41:29;;;;;;;9.20;5.70;;;;;;;19.98;86.35;156499.50;5074604;28;20437;-76
2021/07/28 09:44:05;;;;;;;5.30;4.63;;;;;;;20.13;88.14;156537.31;5076748;28;20454;-89
2021/07/28 09:46:42;;;;;;;6.03;5.30;;;;;;;20.18;88.06;156550.34;5057854;28;20553;-89
2021/07/28 09:49:19;;;;;;;6.10;4.80;;;;;;;20.16;86.55;156545.13;5084053;28;20446;-88
2021/07/28 09:51:54;;;;;;;7.40;6.47;;;;;;;20.20;85.84;156556.84;5073203;28;20484;-89
2021/07/28 09:54:30;;;;;;;6.40;5.53;;;;;;;20.32;88.46;156588.25;5074365;28;21087;-89
2021/07/28 09:57:09;;;;;;;5.40;4.90;;;;;;;20.59;85.19;156658.69;5055482;28;20552;-89
2021/07/28 09:59:46;;;;;;;5.43;4.60;;;;;;;20.54;83.80;156645.59;5073408;28;20446;-87
2021/07/28 10:02:24;;;;;;;7.13;5.20;;;;;;;20.59;84.31;156657.38;5074498;28;20936;-89
2021/07/28 10:05:01;;;;;;;5.50;4.30;;;;;;;20.69;83.54;156682.16;5054131;28;20443;-89
2021/07/28 10:07:37;;;;;;;6.10;5.10;;;;;;;20.80;82.57;156712.16;5061983;28;20430;-89
2021/07/28 10:10:13;;;;;;;5.00;4.43;;;;;;;21.05;80.68;156777.38;5075281;28;20901;-89
2021/07/28 10:12:50;;;;;;;5.67;4.37;;;;;;;21.35;79.37;156854.44;5080359;28;20473;-87
2021/07/28 10:15:26;;;;;;;5.00;4.50;;;;;;;21.38;77.99;156862.28;5075257;28;20465;-87
2021/07/28 10:18:04;;;;;;;4.97;4.47;;;;;;;21.46;78.82;156883.19;5069235;28;21079;-87
2021/07/28 10:20:52;;;;;;;4.97;4.47;;;;;;;21.35;76.07;156853.13;5058744;28;20507;-87
2021/07/28 10:23:27;;;;;;;5.80;4.87;;;;;;;21.39;75.94;156864.91;5075653;28;20473;-87
2021/07/28 10:26:03;;;;;;;4.70;4.30;;;;;;;21.41;74.20;156870.13;5058560;28;20446;-87
2021/07/28 10:28:38;;;;;;;4.93;4.37;;;;;;;21.29;74.33;156838.78;5073758;28;20446;-87
2021/07/28 10:31:15;;;;;;;4.67;4.17;;;;;;;21.17;74.68;156808.78;5073920;28;20458;-87
2021/07/28 10:33:53;;;;;;;5.03;4.40;;;;;;;21.10;76.21;156789.22;5074091;28;20430;-89
2021/07/28 10:36:47;;;;;;;5.30;4.70;;;;;;;21.09;76.25;156786.59;5073565;28;20446;-87
2021/07/28 10:39:43;;;;;;;4.90;3.97;;;;;;;21.26;76.42;156829.66;5073989;28;20523;-87
2021/07/28 10:42:19;;;;;;;5.00;4.50;;;;;;;21.53;76.22;156901.44;5057068;28;20445;-87
2021/07/28 10:45:03;;;;;;;7.47;4.87;;;;;;;21.41;74.57;156868.81;5073539;28;20889;-87
2021/07/28 10:47:40;;;;;;;5.93;5.13;;;;;;;21.47;76.18;156885.75;5073702;28;20844;-87
2021/07/28 10:50:44;;;;;;;5.07;4.57;;;;;;;21.60;78.74;156919.75;5073466;28;20470;-87
2021/07/28 10:53:46;;;;;;;5.20;4.70;;;;;;;21.80;75.83;156971.94;5091260;28;20446;-87
2021/07/28 10:56:22;;;;;;;5.60;4.30;;;;;;;21.89;74.03;156994.19;5054841;28;20491;-89
2021/07/28 10:58:57;;;;;;;5.10;4.50;;;;;;;21.82;72.06;156977.16;5103917;28;20526;-89
2021/07/28 11:01:53;;;;;;;4.30;3.90;;;;;;;21.84;71.85;156982.38;5061314;28;20532;-89
2021/07/28 11:04:29;;;;;;;5.50;4.00;;;;;;;21.70;71.61;156945.84;5087467;28;20449;-89
2021/07/28 11:07:05;;;;;;;4.77;4.23;;;;;;;21.55;72.38;156906.66;5065608;28;20442;-89
2021/07/28 11:09:42;;;;;;;4.73;4.30;;;;;;;21.39;74.40;156864.91;5072960;28;20445;-89
2021/07/28 11:12:18;;;;;;;5.47;4.17;;;;;;;21.40;73.87;156867.50;5072346;28;20470;-76
2021/07/28 11:14:53;;;;;;;4.23;3.83;;;;;;;21.48;73.00;156887.06;5069942;28;20450;-76
2021/07/28 11:17:29;;;;;;;4.40;4.00;;;;;;;21.69;75.49;156941.91;5078767;28;20450;-76
2021/07/28 11:20:06;;;;;;;6.13;4.40;;;;;;;21.83;72.35;156979.78;5081070;28;20437;-76
2021/07/28 11:22:43;;;;;;;5.53;4.73;;;;;;;21.97;72.09;157013.78;5072200;28;20445;-75
2021/07/28 11:25:19;;;;;;;5.40;3.83;;;;;;;22.08;71.93;157042.53;5075162;28;20449;-75
2021/07/28 11:28:07;;;;;;;5.17;4.67;;;;;;;21.93;71.10;157003.31;5077245;28;20863;-76
2021/07/28 11:30:42;;;;;;;4.67;4.13;;;;;;;21.84;71.35;156981.09;5072717;28;20455;-76
2021/07/28 11:33:18;;;;;;;4.57;4.17;;;;;;;22.16;71.77;157063.41;5070247;28;20445;-76
2021/07/28 11:35:54;;;;;;;5.33;4.13;;;;;;;22.12;70.63;157052.94;5071551;28;20866;-76
2021/07/28 11:38:33;;;;;;;5.23;4.73;;;;;;;22.53;73.57;157160.03;5082011;28;20545;-76
2021/07/28 11:41:10;;;;;;;5.40;4.90;;;;;;;22.54;69.47;157162.66;5080965;28;20528;-76
2021/07/28 11:43:46;;;;;;;4.83;4.37;;;;;;;22.70;69.36;157204.50;5078059;28;20446;-76
2021/07/28 11:46:22;;;;;;;4.80;4.40;;;;;;;22.43;66.12;157135.22;5077756;28;20454;-76
2021/07/28 11:48:59;;;;;;;5.17;4.67;;;;;;;22.43;68.59;157133.91;5080625;28;20773;-76
2021/07/28 11:51:36;;;;;;;5.00;4.13;;;;;;;22.43;68.70;157133.91;5072306;28;20473;-76
2021/07/28 11:54:15;;;;;;;5.00;4.50;;;;;;;22.36;68.97;157115.63;5093125;28;20787;-76
2021/07/28 11:56:52;;;;;;;4.93;4.40;;;;;;;22.44;68.61;157136.53;5091522;28;20453;-76
2021/07/28 11:59:31;;;;;;;5.07;4.57;;;;;;;22.44;68.41;157136.53;5061351;28;20442;-76
2021/07/28 12:02:06;;;;;;;5.13;4.37;;;;;;;22.36;68.19;157116.97;5067777;28;20842;-74
2021/07/28 12:04:44;;;;;;;5.67;4.60;;;;;;;22.42;68.49;157131.31;5072554;28;20842;-75
2021/07/28 12:07:20;;;;;;;5.50;4.90;;;;;;;22.63;68.21;157186.25;5069047;28;20474;-75